Cedarfalls, Iowa
Current Conditions -  °F | °C
As of 2:54 AM on Thursday 27 Nov 2014 (Local Time) from KALO Reporting Station
Overcast Overcast  
Wind Chill:   Ceiling: 2800
Heat Index: 16°   Visibility: 10mi
Dew Point: 12°   Wind: 14mph
Humidity: 84%   Direction: 320°NW
Pressure: 30.38"   Gusts: NA
Location:  42.5035°N, 92.4936°W
Report Text: KALO 270854Z 32012KT 10SM OVC028 M09/M11 A3038 RMK AO2 SNE0758 SLP302 P0000 60000 T10891111 53016
Loading
Personal Weather Stations






























Interactive Weather Map New forecast layout! Learn more

10-Day Weather Forecast

Advertisements
Track Severe Weather on mobile